ASN logo
ASN Wikibase Occurrence # 200756
Last updated: 22 February 2018
This information is added by users of ASN. Neither ASN nor the Flight Safety Foundation are responsible for the completeness or correctness of this information. If you feel this information is incomplete or incorrect, you can submit corrected information.

Date:25-OCT-2017
Time:20:25 LT
Type:Silhouette image of generic CRJ9 model; specific model in this crash may look slightly different
Canadair CL-600-2D24 Regional Jet CRJ-900LR
Owner/operator:SAS Scandinavian Airlines, opb CityJet
Registration: EI-FPD
C/n / msn: 15401
Fatalities:Fatalities: 0 / Occupants: 92
Other fatalities:0
Airplane damage: None
Category:Serious incident
Location:Turku Airport (TKU/EFTU) -   Finland
Phase: Landing
Nature:International Scheduled Passenger
Departure airport:Stockholm-Arlanda Airport (ARN/ESSA)
Destination airport:Turku Airport (TKU/EFTU)
Investigating agency: AIB Finland
Narrative:
SAS flight SK4236, a CRJ-900LR operated by Cityjet, suffered a serious incident after landing on runway 26 at Turku Airport, Finland.
After touchdown, the aircraft partially exited the runway. Then it turned left 190 with high speed and stopped at the end of the runway.

Weather reported about the time of the incident (17:25Z):
EFTU 251620Z AUTO 12014KT 2000 SN OVC005/// 00/M00 Q1009
EFTU 251820Z AUTO 12013KT 090V150 1400 R08/P2000 SN OVC004/// M00/M00 Q1007

Sources:

http://www.onnettomuustutkinta.fi/en/index/ajankohtaista/aloitetuttutkinnattiedotteet/l2017-05liikennelentokoneenhallinnanmenetyslaskukiidossaturunlentoasemalla25.10.2017.html
https://www.flightradar24.com/data/flights/sk4236#f5330f6


Revision history:

Date/timeContributorUpdates
31-Oct-2017 20:56 harro Added
31-Oct-2017 21:00 harro Updated [Time, Narrative]

Corrections or additions? ... Edit this accident description